Time;durP1;ratioP1;P1;durP2;ratioP2;P2;SDS_P1;SDS_P2;PMS_P1;PMS_P2;Temp;Humidity;BMP_temperature;BMP_pressure;BME280_temperature;BME280_humidity;BME280_pressure;Samples;Min_cycle;Max_cycle;Signal;HPM_P1;HPM_P2
2021/06/19 00:00:39;;;;;;;4.85;0.85;;;11.60;99.90;;;;;;5013478;28;20066;-70
2021/06/19 00:03:05;;;;;;;2.15;1.00;;;11.50;99.90;;;;;;5013282;28;20445;-70
2021/06/19 00:05:32;;;;;;;2.55;0.90;;;11.30;99.90;;;;;;5013221;28;20062;-69
2021/06/19 00:07:58;;;;;;;4.35;0.88;;;11.20;99.90;;;;;;5013363;28;20026;-70
2021/06/19 00:10:24;;;;;;;3.00;1.23;;;11.20;99.90;;;;;;5013248;28;20030;-70
2021/06/19 00:12:51;;;;;;;2.28;0.80;;;11.20;99.90;;;;;;5013029;28;20101;-70
2021/06/19 00:15:19;;;;;;;2.65;0.75;;;11.20;99.90;;;;;;5012856;28;20565;-70
2021/06/19 00:17:46;;;;;;;2.72;1.00;;;11.10;99.90;;;;;;5012971;28;20025;-69
2021/06/19 00:20:16;;;;;;;2.97;0.77;;;11.10;99.90;;;;;;5012734;28;20393;-69
2021/06/19 00:22:42;;;;;;;1.60;0.88;;;11.10;99.90;;;;;;5012884;28;20432;-70
2021/06/19 00:25:09;;;;;;;2.50;0.82;;;11.10;99.90;;;;;;5012775;28;20038;-70
2021/06/19 00:27:36;;;;;;;1.77;0.85;;;11.00;99.90;;;;;;5012635;28;20116;-69
2021/06/19 00:30:04;;;;;;;1.98;0.82;;;11.00;99.90;;;;;;5012781;28;20032;-69
2021/06/19 00:32:30;;;;;;;3.22;0.88;;;11.00;99.90;;;;;;5012675;28;20040;-69
2021/06/19 00:34:55;;;;;;;2.33;1.00;;;11.00;99.90;;;;;;5012803;28;20096;-69
2021/06/19 00:37:21;;;;;;;1.27;0.88;;;11.00;99.90;;;;;;5012805;28;20038;-70
2021/06/19 00:39:47;;;;;;;1.92;0.80;;;11.00;99.90;;;;;;5012932;28;20061;-70
2021/06/19 00:42:20;;;;;;;1.75;0.70;;;11.00;99.90;;;;;;5012274;28;20425;-69
2021/06/19 00:44:46;;;;;;;2.33;0.82;;;11.10;99.90;;;;;;5012891;28;20030;-69
2021/06/19 00:47:12;;;;;;;3.08;1.02;;;11.10;99.90;;;;;;5012351;28;20505;-70
2021/06/19 00:49:38;;;;;;;2.38;0.80;;;11.10;99.90;;;;;;5012609;28;20044;-70
2021/06/19 00:52:04;;;;;;;1.27;0.70;;;11.00;99.90;;;;;;5012166;28;20033;-70
2021/06/19 00:54:29;;;;;;;3.80;1.00;;;11.00;99.90;;;;;;5011706;28;20131;-69
2021/06/19 00:56:55;;;;;;;1.92;0.70;;;11.00;99.90;;;;;;5012353;28;20485;-69
2021/06/19 00:59:21;;;;;;;1.23;0.70;;;11.00;99.90;;;;;;4994694;28;20391;-69
2021/06/19 01:01:47;;;;;;;2.42;0.80;;;10.90;99.90;;;;;;5011006;28;20046;-69
2021/06/19 01:04:13;;;;;;;1.58;0.68;;;10.80;99.90;;;;;;5012427;28;20022;-70
2021/06/19 01:06:39;;;;;;;1.90;0.88;;;10.60;99.90;;;;;;5012287;28;20099;-69
2021/06/19 01:09:07;;;;;;;3.85;0.95;;;10.60;99.90;;;;;;5012218;28;20473;-69
2021/06/19 01:11:33;;;;;;;3.63;1.02;;;10.50;99.90;;;;;;5012479;28;20042;-69
2021/06/19 01:13:59;;;;;;;7.80;1.05;;;10.50;99.90;;;;;;5010853;28;20120;-69
2021/06/19 01:16:25;;;;;;;3.35;0.90;;;10.50;99.90;;;;;;5012287;28;20034;-70
2021/06/19 01:52:31;;;;;;;1.77;0.85;;;10.10;99.90;;;;;;5873567;23;20046;-69
2021/06/19 01:54:57;;;;;;;3.47;1.20;;;10.10;99.90;;;;;;5030662;28;20040;-69
2021/06/19 01:57:22;;;;;;;3.60;0.82;;;10.10;99.90;;;;;;5031536;28;20029;-69
2021/06/19 01:59:48;;;;;;;2.40;0.73;;;10.10;99.90;;;;;;5031290;28;20030;-69
2021/06/19 02:02:14;;;;;;;2.83;0.70;;;10.10;99.90;;;;;;5031363;28;20044;-69
2021/06/19 02:04:40;;;;;;;2.00;0.82;;;10.10;99.90;;;;;;5031592;28;20022;-69
2021/06/19 02:07:05;;;;;;;1.15;0.80;;;10.00;99.90;;;;;;5034154;28;20026;-69
2021/06/19 02:09:31;;;;;;;2.53;0.95;;;10.00;99.90;;;;;;5033595;28;20022;-69
2021/06/19 02:11:57;;;;;;;4.13;0.90;;;10.00;99.90;;;;;;5035117;28;20104;-69
2021/06/19 02:14:22;;;;;;;1.95;0.85;;;10.00;99.90;;;;;;5035015;28;20033;-69
2021/06/19 02:16:48;;;;;;;2.47;0.90;;;10.00;99.90;;;;;;5034922;28;20030;-70
2021/06/19 02:19:14;;;;;;;2.55;0.80;;;10.00;99.90;;;;;;5035187;28;20021;-70
2021/06/19 02:21:39;;;;;;;2.08;0.90;;;10.00;99.90;;;;;;5034797;28;20555;-69
2021/06/19 02:24:06;;;;;;;1.20;0.80;;;10.00;99.90;;;;;;5035006;28;20077;-69
2021/06/19 02:26:31;;;;;;;3.25;0.90;;;10.10;99.90;;;;;;5034591;28;20033;-69
2021/06/19 02:28:57;;;;;;;2.90;1.02;;;10.10;99.90;;;;;;5034748;28;20029;-69
2021/06/19 02:31:24;;;;;;;3.55;1.08;;;10.10;99.90;;;;;;5033438;28;20025;-69
2021/06/19 02:33:49;;;;;;;1.50;0.70;;;10.20;99.90;;;;;;5034628;28;20064;-69
2021/06/19 02:36:16;;;;;;;2.58;0.93;;;10.20;99.90;;;;;;5034662;28;20053;-69
2021/06/19 02:38:41;;;;;;;3.63;1.15;;;10.20;99.90;;;;;;5034388;28;20033;-69
2021/06/19 02:41:07;;;;;;;2.38;1.15;;;10.30;99.90;;;;;;5034698;28;20077;-69
2021/06/19 02:43:33;;;;;;;4.70;0.90;;;10.30;99.90;;;;;;5034308;28;20079;-69
2021/06/19 02:46:00;;;;;;;4.00;0.80;;;10.40;99.90;;;;;;5034514;28;20032;-69
2021/06/19 02:48:27;;;;;;;1.73;0.73;;;10.50;99.90;;;;;;5034361;28;20087;-69
2021/06/19 02:50:55;;;;;;;1.58;0.73;;;10.60;99.90;;;;;;5034345;28;20030;-69
2021/06/19 02:53:20;;;;;;;1.55;0.80;;;10.80;99.90;;;;;;5022479;28;20049;-69
2021/06/19 02:55:46;;;;;;;3.30;0.90;;;11.10;99.90;;;;;;5014471;28;20140;-69
2021/06/19 02:58:14;;;;;;;3.25;1.02;;;11.50;99.90;;;;;;5014451;28;20029;-69
2021/06/19 03:00:40;;;;;;;1.90;0.80;;;11.60;99.90;;;;;;5014206;28;20030;-69
2021/06/19 03:03:07;;;;;;;1.17;0.77;;;11.70;99.90;;;;;;5014611;28;20054;-69
2021/06/19 03:05:35;;;;;;;3.45;0.80;;;11.70;99.90;;;;;;5014133;28;20030;-69
2021/06/19 03:08:01;;;;;;;4.20;1.00;;;11.70;99.90;;;;;;5014303;28;20053;-69
2021/06/19 03:10:29;;;;;;;5.03;1.00;;;11.70;99.90;;;;;;5014185;28;20477;-69
2021/06/19 03:12:56;;;;;;;1.65;0.70;;;11.70;99.90;;;;;;5013947;28;20026;-69
2021/06/19 03:15:22;;;;;;;2.88;0.82;;;11.70;99.90;;;;;;5014134;28;20036;-69
2021/06/19 03:17:48;;;;;;;2.53;1.00;;;11.80;99.90;;;;;;5013219;28;20429;-69
2021/06/19 03:20:15;;;;;;;4.68;0.82;;;12.10;99.90;;;;;;5014141;28;20065;-69
2021/06/19 03:22:50;;;;;;;1.23;0.57;;;12.50;99.90;;;;;;5012698;28;20022;-69
2021/06/19 03:25:30;;;;;;;4.88;0.88;;;13.00;99.90;;;;;;5014136;28;20030;-69
2021/06/19 03:27:58;;;;;;;2.47;0.82;;;13.60;99.90;;;;;;5013754;28;20028;-69
2021/06/19 03:30:25;;;;;;;1.45;0.80;;;14.10;99.90;;;;;;5013929;28;20092;-69
2021/06/19 03:32:51;;;;;;;1.50;0.57;;;14.50;99.00;;;;;;5013680;28;20053;-69
2021/06/19 03:35:18;;;;;;;1.85;0.50;;;14.90;97.60;;;;;;5013700;28;20026;-69
2021/06/19 03:37:45;;;;;;;2.10;0.45;;;15.30;95.80;;;;;;5013545;28;20022;-69
2021/06/19 03:40:12;;;;;;;1.77;0.70;;;15.70;94.10;;;;;;5013799;28;20037;-69
2021/06/19 03:42:39;;;;;;;1.48;0.32;;;15.80;92.70;;;;;;5013447;28;20033;-69
2021/06/19 03:45:06;;;;;;;1.35;0.47;;;15.90;91.60;;;;;;5013542;28;20376;-69
2021/06/19 03:47:32;;;;;;;0.75;0.40;;;15.70;90.90;;;;;;5012307;28;20477;-69
2021/06/19 03:49:58;;;;;;;3.28;0.73;;;15.50;91.00;;;;;;5013655;28;20029;-69
2021/06/19 03:52:24;;;;;;;2.75;0.63;;;15.70;90.80;;;;;;5013205;28;20404;-69
2021/06/19 03:54:50;;;;;;;0.80;0.40;;;16.00;89.60;;;;;;5013475;28;20729;-69
2021/06/19 03:57:27;;;;;;;1.20;0.40;;;16.40;87.50;;;;;;5013380;28;20312;-69
2021/06/19 03:59:53;;;;;;;3.42;0.80;;;16.80;84.80;;;;;;5013168;28;20022;-69
2021/06/19 04:02:20;;;;;;;0.95;0.50;;;17.30;84.00;;;;;;5013442;28;20045;-69
2021/06/19 04:04:46;;;;;;;1.95;0.60;;;17.60;80.50;;;;;;5012939;28;20025;-69
2021/06/19 04:07:12;;;;;;;3.00;1.05;;;17.90;79.60;;;;;;5013174;28;20037;-69
2021/06/19 04:09:38;;;;;;;1.13;0.57;;;18.20;78.00;;;;;;5012925;28;20026;-69
2021/06/19 04:12:05;;;;;;;1.10;0.40;;;18.50;75.70;;;;;;5013149;28;20500;-69
2021/06/19 04:14:30;;;;;;;1.35;0.35;;;18.70;74.20;;;;;;5013015;28;20049;-70
2021/06/19 04:16:56;;;;;;;1.05;0.50;;;18.90;73.00;;;;;;5012880;28;20474;-69
2021/06/19 04:19:22;;;;;;;1.17;0.52;;;19.10;71.90;;;;;;5012857;28;20018;-69
2021/06/19 04:21:48;;;;;;;2.90;1.00;;;19.30;70.10;;;;;;5012728;28;20049;-69
2021/06/19 04:24:13;;;;;;;2.78;0.50;;;19.60;69.10;;;;;;5013139;28;20028;-70
2021/06/19 04:26:39;;;;;;;1.75;0.40;;;19.80;68.20;;;;;;5012725;28;20026;-69
2021/06/19 04:29:05;;;;;;;1.25;0.40;;;20.00;66.80;;;;;;5011321;28;20018;-70
2021/06/19 04:31:31;;;;;;;1.20;0.40;;;20.20;66.50;;;;;;5012767;28;20075;-70
2021/06/19 04:33:58;;;;;;;2.47;0.50;;;20.30;65.40;;;;;;5012484;28;20033;-70
2021/06/19 04:36:25;;;;;;;0.93;0.40;;;20.50;63.40;;;;;;5012706;28;20148;-70
2021/06/19 04:38:51;;;;;;;1.48;0.30;;;20.70;63.10;;;;;;5012502;28;20500;-70
2021/06/19 04:41:33;;;;;;;0.85;0.30;;;20.90;62.30;;;;;;5012849;28;20038;-70
2021/06/19 04:44:27;;;;;;;0.77;0.45;;;21.00;60.70;;;;;;5012334;28;20482;-70
2021/06/19 04:46:46;;;;;;;1.08;0.40;;;21.10;60.00;;;;;;5011894;28;20049;-70
2021/06/19 04:49:12;;;;;;;1.95;0.38;;;21.30;58.90;;;;;;5012455;28;20022;-70
2021/06/19 04:51:38;;;;;;;3.42;0.40;;;21.10;58.40;;;;;;5012305;28;20517;-70
2021/06/19 04:54:04;;;;;;;0.65;0.30;;;21.00;58.30;;;;;;5012087;28;20054;-70
2021/06/19 04:56:30;;;;;;;0.70;0.30;;;21.00;58.20;;;;;;5012361;28;20485;-70
2021/06/19 04:58:56;;;;;;;0.50;0.32;;;21.10;58.30;;;;;;5012109;28;20108;-70
2021/06/19 05:01:22;;;;;;;3.72;0.40;;;21.20;57.40;;;;;;5012269;28;20057;-70
2021/06/19 05:03:47;;;;;;;1.95;0.40;;;21.30;56.90;;;;;;5012102;28;20489;-70
2021/06/19 05:06:13;;;;;;;3.45;0.40;;;21.50;57.10;;;;;;5012313;28;20037;-70
2021/06/19 05:08:40;;;;;;;1.15;0.38;;;21.60;56.50;;;;;;5012287;28;20117;-70
2021/06/19 05:11:05;;;;;;;1.52;0.40;;;21.70;56.50;;;;;;5012237;28;20029;-70
2021/06/19 05:13:31;;;;;;;3.08;0.40;;;21.60;55.70;;;;;;5012140;28;20084;-70
2021/06/19 05:15:57;;;;;;;1.65;0.47;;;21.50;55.90;;;;;;5012313;28;20026;-70
2021/06/19 05:18:23;;;;;;;5.55;0.30;;;21.60;56.00;;;;;;5012081;28;20474;-70
2021/06/19 05:20:48;;;;;;;0.77;0.40;;;21.80;56.10;;;;;;5011955;28;20505;-70
2021/06/19 05:23:14;;;;;;;0.75;0.40;;;22.00;55.80;;;;;;4994435;28;20037;-70
2021/06/19 05:25:40;;;;;;;1.75;0.50;;;22.20;55.70;;;;;;5011819;28;20025;-70
2021/06/19 05:28:06;;;;;;;1.58;0.30;;;22.30;54.30;;;;;;5012056;28;20018;-70
2021/06/19 05:30:32;;;;;;;1.05;0.30;;;22.40;54.30;;;;;;5010690;28;20026;-70
2021/06/19 05:32:58;;;;;;;0.93;0.30;;;22.50;53.80;;;;;;5011909;28;20406;-70
2021/06/19 05:35:24;;;;;;;0.77;0.20;;;22.60;53.70;;;;;;5011932;28;20029;-70
2021/06/19 05:37:50;;;;;;;1.73;0.40;;;22.80;53.40;;;;;;5011869;28;20026;-70
2021/06/19 05:40:16;;;;;;;0.35;0.20;;;22.90;53.10;;;;;;5012136;28;20022;-71
2021/06/19 05:42:42;;;;;;;2.03;1.15;;;23.00;52.10;;;;;;5015493;28;20473;-70
2021/06/19 05:45:08;;;;;;;2.15;0.93;;;23.00;52.00;;;;;;5015760;28;20036;-70
2021/06/19 05:47:34;;;;;;;1.90;0.40;;;23.00;52.40;;;;;;5016108;28;20092;-70
2021/06/19 05:50:00;;;;;;;2.10;0.30;;;23.10;51.70;;;;;;5015553;28;20465;-71
2021/06/19 05:52:26;;;;;;;1.42;0.30;;;23.10;51.50;;;;;;5015436;28;20054;-71
2021/06/19 05:54:52;;;;;;;1.83;0.25;;;23.20;51.60;;;;;;5015738;28;20076;-70
2021/06/19 05:57:19;;;;;;;0.65;0.20;;;23.10;52.00;;;;;;5015570;28;20519;-70
2021/06/19 05:59:45;;;;;;;1.80;0.38;;;23.30;51.50;;;;;;5015614;28;20040;-71
2021/06/19 06:02:11;;;;;;;1.30;0.40;;;23.30;51.10;;;;;;5015750;28;20401;-71
2021/06/19 06:04:37;;;;;;;2.45;0.28;;;23.30;51.00;;;;;;5015458;28;20078;-71
2021/06/19 06:07:03;;;;;;;1.48;0.30;;;23.30;51.90;;;;;;5015321;28;20040;-71
2021/06/19 06:09:29;;;;;;;1.88;0.50;;;23.50;51.50;;;;;;5015586;28;20026;-71
2021/06/19 06:11:55;;;;;;;1.25;0.30;;;23.70;50.10;;;;;;5015515;28;20035;-71
2021/06/19 06:14:21;;;;;;;1.63;0.25;;;23.60;49.80;;;;;;5015214;28;20536;-71
2021/06/19 06:16:46;;;;;;;0.47;0.30;;;23.50;50.50;;;;;;5015181;28;20049;-71
2021/06/19 06:19:14;;;;;;;0.38;0.20;;;23.40;50.80;;;;;;5015401;28;20073;-71
2021/06/19 06:21:41;;;;;;;0.93;0.20;;;23.30;51.40;;;;;;5015002;28;20037;-71
2021/06/19 06:24:07;;;;;;;1.27;0.40;;;23.40;51.40;;;;;;5015057;28;20022;-71
2021/06/19 06:26:32;;;;;;;0.98;0.22;;;23.50;51.10;;;;;;5015053;28;20440;-71
2021/06/19 06:28:58;;;;;;;0.80;0.20;;;23.50;51.50;;;;;;5015011;28;20104;-71
2021/06/19 06:31:24;;;;;;;0.77;0.38;;;23.30;50.90;;;;;;5015025;28;20026;-71
2021/06/19 06:33:50;;;;;;;1.83;0.28;;;23.10;50.90;;;;;;5014687;28;20560;-71
2021/06/19 06:36:15;;;;;;;0.57;0.10;;;22.90;51.00;;;;;;5014960;28;20153;-71
2021/06/19 06:38:41;;;;;;;1.02;0.20;;;22.60;50.60;;;;;;5014765;28;20030;-71
2021/06/19 06:41:07;;;;;;;1.85;0.22;;;22.60;50.70;;;;;;5014878;28;20045;-71
2021/06/19 06:43:32;;;;;;;1.10;0.10;;;22.70;51.50;;;;;;5014698;28;20022;-71
2021/06/19 06:45:58;;;;;;;1.60;0.20;;;22.70;50.70;;;;;;5014569;28;20441;-71
2021/06/19 06:48:24;;;;;;;0.75;0.30;;;22.70;50.80;;;;;;5014684;28;20023;-71
2021/06/19 06:50:50;;;;;;;1.63;0.30;;;22.70;50.70;;;;;;5014427;28;20086;-71
2021/06/19 06:53:16;;;;;;;0.88;0.30;;;22.70;50.90;;;;;;5013098;28;20448;-71
2021/06/19 06:55:42;;;;;;;0.95;0.30;;;22.50;49.40;;;;;;5014364;28;20109;-71
2021/06/19 06:58:08;;;;;;;2.58;0.40;;;22.10;50.50;;;;;;5014532;28;20029;-71
2021/06/19 07:00:34;;;;;;;0.77;0.30;;;21.80;50.90;;;;;;5013013;28;20057;-71
2021/06/19 07:03:00;;;;;;;1.83;0.30;;;21.50;51.30;;;;;;5014246;28;20064;-71
2021/06/19 07:05:26;;;;;;;0.45;0.30;;;21.40;51.40;;;;;;5014207;28;20025;-71
2021/06/19 07:07:51;;;;;;;1.23;0.30;;;21.20;51.40;;;;;;5014243;28;20033;-71
2021/06/19 07:10:17;;;;;;;2.72;0.60;;;21.00;51.60;;;;;;5012901;28;20041;-71
2021/06/19 07:12:45;;;;;;;0.35;0.20;;;20.90;52.50;;;;;;5014163;28;20477;-71
2021/06/19 07:15:14;;;;;;;0.63;0.45;;;20.80;52.90;;;;;;5014068;28;20109;-71
2021/06/19 07:17:40;;;;;;;0.27;0.20;;;20.70;52.60;;;;;;5014115;28;20109;-71
2021/06/19 07:20:07;;;;;;;1.90;0.40;;;20.70;53.20;;;;;;5014119;28;20357;-71
2021/06/19 07:22:34;;;;;;;1.55;0.50;;;20.50;53.50;;;;;;5013996;28;20026;-71
2021/06/19 07:25:01;;;;;;;1.15;0.60;;;20.40;54.40;;;;;;5013726;28;20481;-71
2021/06/19 07:27:27;;;;;;;0.52;0.20;;;20.40;54.00;;;;;;5013978;28;20547;-71
2021/06/19 07:29:53;;;;;;;1.25;0.20;;;20.40;54.40;;;;;;5013742;28;20493;-71
2021/06/19 07:32:18;;;;;;;0.40;0.20;;;20.40;54.40;;;;;;5013963;28;20046;-70
2021/06/19 07:34:44;;;;;;;0.70;0.30;;;20.50;54.10;;;;;;5013982;28;20084;-71
2021/06/19 07:37:10;;;;;;;2.15;0.40;;;20.50;54.60;;;;;;5013793;28;20374;-70
2021/06/19 07:39:35;;;;;;;1.27;0.40;;;20.50;54.70;;;;;;5013748;28;20029;-70
2021/06/19 07:42:01;;;;;;;1.58;0.30;;;20.40;54.90;;;;;;5013469;28;20057;-71
2021/06/19 07:44:27;;;;;;;1.88;0.20;;;20.30;55.10;;;;;;5013572;28;20369;-71
2021/06/19 07:46:53;;;;;;;1.60;0.30;;;20.30;56.00;;;;;;5013607;28;20120;-71
2021/06/19 07:49:19;;;;;;;1.20;0.30;;;20.20;55.60;;;;;;5013722;28;20474;-71
2021/06/19 07:51:46;;;;;;;1.35;0.40;;;20.10;54.90;;;;;;5012218;28;20032;-70
2021/06/19 07:54:11;;;;;;;4.03;0.30;;;19.90;55.30;;;;;;5013108;28;20141;-70
2021/06/19 07:56:37;;;;;;;1.20;0.30;;;19.90;56.00;;;;;;5013376;28;20112;-71
2021/06/19 07:59:03;;;;;;;1.05;0.50;;;20.00;56.30;;;;;;5013062;28;20080;-71
2021/06/19 08:01:29;;;;;;;0.20;0.10;;;20.00;56.30;;;;;;5013294;28;20060;-71
2021/06/19 08:03:55;;;;;;;1.95;0.40;;;19.90;56.20;;;;;;5012860;28;20017;-70
2021/06/19 08:06:21;;;;;;;1.25;0.30;;;19.90;55.70;;;;;;5013485;28;20112;-70
2021/06/19 08:08:46;;;;;;;0.38;0.30;;;19.90;56.40;;;;;;5011773;28;20018;-71
2021/06/19 08:11:13;;;;;;;0.90;0.30;;;20.00;57.80;;;;;;5013035;28;20057;-70
2021/06/19 08:13:39;;;;;;;2.10;0.30;;;20.00;56.70;;;;;;5013060;28;20389;-71
2021/06/19 08:16:05;;;;;;;1.83;0.30;;;19.90;56.60;;;;;;5013079;28;20025;-71
2021/06/19 08:18:32;;;;;;;1.35;0.50;;;19.80;56.50;;;;;;5013296;28;20076;-70
2021/06/19 08:20:58;;;;;;;2.90;0.93;;;19.80;55.90;;;;;;5012665;28;20045;-70
2021/06/19 08:23:23;;;;;;;0.40;0.28;;;19.80;56.50;;;;;;5013008;28;20068;-71
2021/06/19 08:25:49;;;;;;;1.85;0.40;;;19.70;56.10;;;;;;5012745;28;20057;-71
2021/06/19 08:28:15;;;;;;;1.42;0.25;;;19.70;56.60;;;;;;5012913;28;20049;-71
2021/06/19 08:30:41;;;;;;;1.20;0.38;;;19.60;56.00;;;;;;5011551;28;20026;-71
2021/06/19 08:33:07;;;;;;;1.42;0.63;;;19.60;55.60;;;;;;5012732;28;20500;-71
2021/06/19 08:35:32;;;;;;;2.08;0.43;;;19.70;56.40;;;;;;5012927;28;20113;-70
2021/06/19 08:37:58;;;;;;;1.35;0.60;;;19.80;57.00;;;;;;5012679;28;20504;-71
2021/06/19 08:40:24;;;;;;;2.17;0.40;;;19.90;56.90;;;;;;5012490;28;20495;-71
2021/06/19 08:42:50;;;;;;;3.28;0.30;;;20.00;56.90;;;;;;5012594;28;20101;-71
2021/06/19 08:45:15;;;;;;;1.25;0.20;;;20.10;56.40;;;;;;5012489;28;20481;-71
2021/06/19 08:47:45;;;;;;;2.30;0.60;;;20.00;55.60;;;;;;5012861;28;20088;-70
2021/06/19 08:50:13;;;;;;;1.55;0.20;;;20.10;56.20;;;;;;5012465;28;20056;-71
2021/06/19 08:52:41;;;;;;;3.00;0.30;;;20.10;54.90;;;;;;4994985;28;20057;-71
2021/06/19 08:55:09;;;;;;;1.17;0.35;;;20.10;56.20;;;;;;5012282;28;20048;-71
2021/06/19 08:57:36;;;;;;;1.77;0.22;;;20.10;55.90;;;;;;5012504;28;20022;-71
2021/06/19 09:00:04;;;;;;;0.73;0.20;;;20.10;56.70;;;;;;5012232;28;20022;-71
2021/06/19 09:02:30;;;;;;;2.05;0.25;;;20.10;56.20;;;;;;5012257;28;20034;-71
2021/06/19 09:05:09;;;;;;;1.10;0.40;;;20.00;56.10;;;;;;5010948;28;20081;-70
2021/06/19 09:07:47;;;;;;;0.82;0.20;;;20.00;55.90;;;;;;5012295;28;20036;-71
2021/06/19 09:10:36;;;;;;;3.00;0.60;;;19.90;55.30;;;;;;5012123;28;20033;-71
2021/06/19 09:13:07;;;;;;;1.73;0.35;;;19.90;57.10;;;;;;5012214;28;20513;-71
2021/06/19 09:15:36;;;;;;;1.48;0.30;;;19.90;56.20;;;;;;5011407;28;20018;-71
2021/06/19 09:18:06;;;;;;;5.20;0.43;;;19.80;56.30;;;;;;5012370;28;20037;-71
2021/06/19 09:20:39;;;;;;;1.42;0.40;;;19.90;56.10;;;;;;5012015;28;20486;-71
2021/06/19 09:23:10;;;;;;;0.93;0.40;;;19.90;57.40;;;;;;5012406;28;20018;-71
2021/06/19 09:25:38;;;;;;;3.30;0.50;;;20.00;57.40;;;;;;5012332;28;20049;-70
2021/06/19 09:28:05;;;;;;;1.27;0.28;;;20.00;57.40;;;;;;5012085;28;20104;-71
2021/06/19 09:30:31;;;;;;;1.20;0.30;;;20.00;56.90;;;;;;5012210;28;20381;-71
2021/06/19 09:33:07;;;;;;;1.33;0.40;;;19.90;57.10;;;;;;5011905;28;20030;-70
2021/06/19 09:35:41;;;;;;;0.75;0.30;;;19.90;57.60;;;;;;5010645;28;20026;-70
2021/06/19 09:38:14;;;;;;;0.90;0.38;;;19.90;58.00;;;;;;5011908;28;20030;-70
2021/06/19 09:40:45;;;;;;;2.88;0.50;;;20.00;57.50;;;;;;5011878;28;20037;-70
2021/06/19 09:43:26;;;;;;;1.48;0.50;;;19.90;57.60;;;;;;5011869;28;20026;-71
2021/06/19 09:46:09;;;;;;;1.08;0.30;;;19.90;58.00;;;;;;5011727;28;20489;-71
2021/06/19 09:48:39;;;;;;;1.50;0.30;;;19.90;58.00;;;;;;5012262;28;20489;-71
2021/06/19 09:51:12;;;;;;;6.80;0.40;;;20.00;57.10;;;;;;5011695;28;20022;-71
2021/06/19 09:53:38;;;;;;;1.75;0.35;;;20.10;57.90;;;;;;5011508;28;20045;-71
2021/06/19 09:56:06;;;;;;;1.38;0.30;;;20.10;56.50;;;;;;5011856;28;20401;-71
2021/06/19 09:58:42;;;;;;;1.30;0.40;;;20.10;55.10;;;;;;5011914;28;20453;-71
2021/06/19 10:01:09;;;;;;;0.35;0.20;;;20.10;54.90;;;;;;5010233;28;20037;-71
2021/06/19 10:03:54;;;;;;;1.20;0.22;;;20.10;56.20;;;;;;5011791;28;20433;-71
2021/06/19 10:06:20;;;;;;;1.17;0.30;;;20.20;55.70;;;;;;5011681;28;20018;-71
2021/06/19 10:08:48;;;;;;;0.43;0.30;;;20.20;55.40;;;;;;5012025;28;20374;-70
2021/06/19 10:11:14;;;;;;;2.15;0.35;;;20.10;55.20;;;;;;5011463;28;20061;-70
2021/06/19 10:13:42;;;;;;;0.63;0.13;;;20.00;55.80;;;;;;5011752;28;20026;-71
2021/06/19 10:16:11;;;;;;;1.48;0.47;;;20.00;56.00;;;;;;5011521;28;20026;-71
2021/06/19 10:18:41;;;;;;;0.57;0.20;;;19.90;56.10;;;;;;5011695;28;20105;-71
2021/06/19 10:21:09;;;;;;;3.05;0.40;;;20.00;55.40;;;;;;5011499;28;20064;-71
2021/06/19 10:23:35;;;;;;;0.73;0.30;;;20.10;56.10;;;;;;5011481;28;20050;-71
2021/06/19 10:26:01;;;;;;;0.55;0.28;;;20.10;54.60;;;;;;5011342;28;20393;-71
2021/06/19 10:28:30;;;;;;;0.50;0.30;;;20.10;54.60;;;;;;5014628;28;20018;-71
2021/06/19 10:30:57;;;;;;;0.93;0.30;;;20.10;53.50;;;;;;5014910;28;20018;-71
2021/06/19 10:33:36;;;;;;;0.63;0.30;;;20.10;54.60;;;;;;5015106;28;20029;-71
2021/06/19 10:36:05;;;;;;;1.88;0.47;;;20.20;54.50;;;;;;5014854;28;20068;-71
2021/06/19 10:38:44;;;;;;;1.45;0.40;;;20.10;54.30;;;;;;5015013;28;20018;-71
2021/06/19 10:41:09;;;;;;;0.52;0.38;;;20.10;54.30;;;;;;5014999;28;20038;-71
2021/06/19 10:43:43;;;;;;;1.23;0.40;;;20.00;55.00;;;;;;5015102;28;20470;-71
2021/06/19 10:46:32;;;;;;;2.35;0.32;;;20.00;54.60;;;;;;5014678;28;20060;-71
2021/06/19 10:48:59;;;;;;;1.55;0.40;;;20.00;55.30;;;;;;5013299;28;20097;-71
2021/06/19 10:51:28;;;;;;;1.38;0.40;;;20.00;54.90;;;;;;5014645;28;20022;-71
2021/06/19 10:54:14;;;;;;;3.63;0.32;;;20.00;54.90;;;;;;5014417;28;20501;-71
2021/06/19 10:56:57;;;;;;;0.75;0.30;;;20.00;54.70;;;;;;5013334;28;20022;-71
2021/06/19 10:59:27;;;;;;;1.10;0.43;;;20.00;55.30;;;;;;5014607;28;20026;-71
2021/06/19 11:01:54;;;;;;;1.75;0.43;;;20.00;55.60;;;;;;5014461;28;20042;-71
2021/06/19 11:04:38;;;;;;;2.55;0.38;;;19.90;55.90;;;;;;5014372;28;20036;-71
2021/06/19 11:07:05;;;;;;;1.75;0.50;;;19.90;55.70;;;;;;5014517;28;20453;-71
2021/06/19 11:09:41;;;;;;;1.25;0.30;;;19.90;54.50;;;;;;5014636;28;20196;-71
2021/06/19 11:12:26;;;;;;;0.65;0.30;;;19.90;56.50;;;;;;5014211;28;20109;-71
2021/06/19 11:15:04;;;;;;;0.93;0.30;;;19.90;57.00;;;;;;5014300;28;20014;-71
2021/06/19 11:17:32;;;;;;;1.02;0.35;;;19.90;56.00;;;;;;5014335;28;20106;-71
2021/06/19 11:20:05;;;;;;;1.10;0.40;;;19.90;55.60;;;;;;5013865;28;20547;-71
2021/06/19 11:22:52;;;;;;;0.55;0.30;;;19.90;56.50;;;;;;5014107;28;20092;-71
2021/06/19 11:25:41;;;;;;;0.65;0.30;;;19.90;56.40;;;;;;5013925;28;20018;-71
2021/06/19 11:28:26;;;;;;;2.80;0.45;;;19.80;57.20;;;;;;5013842;28;20026;-71
2021/06/19 11:31:02;;;;;;;3.30;0.95;;;19.80;56.70;;;;;;5013965;28;20132;-71
2021/06/19 11:33:41;;;;;;;4.30;0.50;;;19.80;56.50;;;;;;5013901;28;20026;-71
2021/06/19 11:36:07;;;;;;;1.58;0.43;;;19.80;57.20;;;;;;5013957;28;20164;-71
2021/06/19 11:38:50;;;;;;;0.85;0.30;;;19.70;57.60;;;;;;5013342;28;20117;-71
2021/06/19 11:41:31;;;;;;;2.88;0.75;;;19.70;58.70;;;;;;5013358;28;20629;-71
2021/06/19 11:43:58;;;;;;;0.88;0.30;;;19.70;57.00;;;;;;5013695;28;20030;-71
2021/06/19 11:46:24;;;;;;;3.88;0.40;;;19.70;56.70;;;;;;5013669;28;20029;-71
2021/06/19 11:48:56;;;;;;;0.95;0.60;;;19.70;56.50;;;;;;5013931;28;20435;-71
2021/06/19 11:51:25;;;;;;;1.15;0.30;;;19.40;56.60;;;;;;5013353;28;20026;-71
2021/06/19 11:53:52;;;;;;;0.90;0.20;;;19.20;56.90;;;;;;5013354;28;20077;-71
2021/06/19 11:56:21;;;;;;;0.90;0.30;;;19.00;57.40;;;;;;5013333;28;20544;-71
2021/06/19 11:59:06;;;;;;;5.32;0.30;;;18.80;57.40;;;;;;5012243;28;20555;-71
2021/06/19 12:01:39;;;;;;;0.93;0.20;;;18.60;57.30;;;;;;5013175;28;20076;-71
2021/06/19 12:04:06;;;;;;;0.38;0.20;;;18.50;57.50;;;;;;5013258;28;20097;-71
2021/06/19 12:06:51;;;;;;;0.30;0.20;;;18.40;56.90;;;;;;5012001;28;20129;-71
2021/06/19 12:09:27;;;;;;;1.40;0.30;;;18.20;57.40;;;;;;5013073;28;20021;-71
2021/06/19 12:12:04;;;;;;;2.00;0.38;;;17.80;57.70;;;;;;5013130;28;20109;-71
2021/06/19 12:14:32;;;;;;;2.33;0.40;;;17.60;59.00;;;;;;5013200;28;20025;-71
2021/06/19 12:17:07;;;;;;;0.50;0.32;;;17.70;58.90;;;;;;5013075;28;20034;-71
2021/06/19 12:19:35;;;;;;;2.65;0.30;;;17.60;58.90;;;;;;5013072;28;20089;-71
2021/06/19 12:22:04;;;;;;;1.75;0.30;;;17.50;59.30;;;;;;5012698;28;20100;-71
2021/06/19 12:24:36;;;;;;;1.52;0.40;;;17.40;59.60;;;;;;5012966;28;20620;-70
2021/06/19 12:27:08;;;;;;;2.38;0.45;;;17.40;60.20;;;;;;5012723;28;20033;-71
2021/06/19 12:29:41;;;;;;;2.88;0.60;;;17.50;60.80;;;;;;5012758;28;20057;-71
2021/06/19 12:32:17;;;;;;;1.42;0.50;;;17.50;60.50;;;;;;5012950;28;20029;-70
2021/06/19 12:34:43;;;;;;;1.23;0.40;;;17.60;60.80;;;;;;5012869;28;20053;-71
2021/06/19 12:37:10;;;;;;;1.52;0.30;;;17.40;60.90;;;;;;5012626;28;20022;-71
2021/06/19 12:39:36;;;;;;;0.70;0.40;;;17.40;61.00;;;;;;5012702;28;20045;-71
2021/06/19 12:42:02;;;;;;;1.00;0.32;;;17.40;60.90;;;;;;5012354;28;20121;-71
2021/06/19 12:44:28;;;;;;;1.00;0.43;;;17.40;61.20;;;;;;5012594;28;20105;-71
2021/06/19 12:47:14;;;;;;;0.65;0.30;;;17.30;60.50;;;;;;5011273;28;20087;-71
2021/06/19 12:49:56;;;;;;;2.28;0.30;;;17.30;60.80;;;;;;5012536;28;20026;-71
2021/06/19 12:52:23;;;;;;;1.60;0.30;;;17.20;60.40;;;;;;5012032;28;20026;-71
2021/06/19 12:55:07;;;;;;;3.65;0.30;;;17.20;61.60;;;;;;5011191;28;20046;-71
2021/06/19 12:57:33;;;;;;;0.98;0.38;;;17.30;61.40;;;;;;5012726;28;20034;-71
2021/06/19 12:59:59;;;;;;;0.60;0.40;;;17.30;61.00;;;;;;5012319;28;20038;-71
2021/06/19 13:02:24;;;;;;;1.00;0.30;;;17.40;62.60;;;;;;5012069;28;20042;-71
2021/06/19 13:04:50;;;;;;;0.98;0.30;;;17.40;62.40;;;;;;5012587;28;20033;-70
2021/06/19 13:07:17;;;;;;;3.05;0.30;;;17.40;61.80;;;;;;5012309;28;20028;-70
2021/06/19 13:09:49;;;;;;;1.50;0.55;;;17.30;62.00;;;;;;5012356;28;20022;-70
2021/06/19 13:12:16;;;;;;;2.28;0.40;;;17.30;62.10;;;;;;5012202;28;20060;-70
2021/06/19 13:14:44;;;;;;;2.22;0.30;;;17.20;62.70;;;;;;5012539;28;20033;-70
2021/06/19 13:17:19;;;;;;;3.28;0.50;;;17.20;63.30;;;;;;5012256;28;20432;-70
2021/06/19 13:19:45;;;;;;;0.52;0.38;;;17.20;63.30;;;;;;5012450;28;20022;-70
2021/06/19 13:22:11;;;;;;;1.17;0.40;;;17.10;64.30;;;;;;5011938;28;20038;-70
2021/06/19 13:24:40;;;;;;;0.93;0.38;;;17.00;64.90;;;;;;5012472;28;20018;-70
2021/06/19 13:27:12;;;;;;;2.95;0.40;;;16.90;65.10;;;;;;5011949;28;20113;-70